Pagrindinis puslapis
METAR-TAF:

METAR-TAF

Oro uostai :

Batervortas, Malaizija

platuma: 05-27-58N, ilguma: 100-23-28E, Aukštis: 2 m

Dabartinis oras

Ataskaita buvo paskelbta 1 valandą ir 11 minutes, ne 03:00 UTC
Vėjas 3 kt nuo kintamojo kryptimis
Temperatūra 31°C
Drėgmė 66%
Slėgis 1010 hPa
Matomumas: 8000 m
Mažai debesys ne aukštis 2000 ft

METAR: WMKB 290300Z VRB03KT 8000 FEW020 31/24 Q1010 NOSIG

Laikas: 12:11 (04:11 UTC)

Prognozė

Ataskaita buvo paskelbta 5 valandos ir 11 minutes, ne 23:00 UTC
Prognozė galioja nuo 29 metu 00 UTC su 01 metu 00 UTC
Vėjas 5 kt iš Šiaurės Rytų
Matomumas: 9000 m
Mažai debesys ne aukštis 2000 ft
Laikinai
nuo 29 metu 06 UTC su 29 metu 10 UTC
Vėjas 10 kt iš Vakarų/Šiaurės Vakarų

TAF: WMKB 282300Z 2900/0100 05005KT 9000 FEW020 TEMPO 2906/2910 30010KT

Orai ataskaitas ir orų prognozės (METAR, TAF).

turimą stotys yra geltonos ir raudonos taškus žemėlapyje.

Perkelti pele per norėdami pamatyti stoties vardą.

Tada spustelėkite, norėdami matyti oro stebėjimo ir prognozės.

Norėdami pakeisti žemėlapį: spustelėkite ant žalios mygtukų su juodo kryžiaus žemyn,; žalią mygtuką su brūkšneliu, jei norite nutolinti; arba žalių rodyklių gretimoms žemėlapius.


METAR-TAF: